Kitty C — 2EIQ6 — position and weather

sailwx.info

Track history (hours):
 
Tides and Currents Weather Stations Pressure Air Temp Water Temp Dewpoint Dewpoint Depression Visibility Wind Speed Wind Dir Waves Ship Positions

Kitty C

Last reported at 2017-Jun-21 14:47 UTC. Time now 2017-Jun-26 18:59 UTC.
Position N 43°24' E 003°42'.

Length 106 m; draft 4.4 m.

Type: Cargo ship. MMSI: 235085464.

Date/timePositionNaut miles runAvg speedWind from/ knotsBaromVisibWave heightAir tempDewpointWater temp
2017-Jun-21 14:47N 43°24' E 003°42'0 0.0
2017-Jun-21 14:23N 43°24' E 003°42'0 0.0
2017-Jun-21 13:02N 43°24' E 003°42'0 0.0
2017-Jun-21 12:59N 43°24' E 003°42'0 0.0
2017-Jun-20 14:50N 43°24' E 003°42'0 0.0
2017-Jun-20 14:29N 43°24' E 003°42'0 0.0
2017-Jun-20 12:53N 43°24' E 003°42'0 0.0
2017-Jun-20 12:29N 43°24' E 003°42'0 0.0
2017-Jun-20 11:56N 43°24' E 003°42'0 0.0
2017-Jun-20 11:29N 43°24' E 003°42'0 0.0
2017-Jun-20 10:41N 43°24' E 003°42'0 0.0
2017-Jun-20 09:59N 43°24' E 003°42'1 0.2
2017-Jun-20 03:24N 43°24' E 003°44'6 7.4
2017-Jun-20 02:37N 43°20' E 003°50'16 7.9
2017-Jun-20 00:35N 43°15' E 004°11'1 8.2
2017-Jun-20 00:25N 43°14' E 004°12'6 8.2
2017-Jun-19 23:38N 43°13' E 004°21'6 5.8
2017-Jun-19 22:38N 43°10' E 004°28'4 6.7
2017-Jun-19 22:02N 43°11' E 004°33'0 8.2
2017-Jun-19 22:01N 43°11' E 004°33'6 7.7
2017-Jun-19 21:14N 43°08' E 004°40'4 7.1
2017-Jun-19 20:38N 43°09' E 004°45'13 6.6
2017-Jun-19 18:38N 43°17' E 004°59'4 8.6
2017-Jun-19 18:10N 43°21' E 004°58'1 8.4
2017-Jun-19 18:00N 43°22' E 004°57'5 0.3
2017-Jun-19 02:49N 43°25' E 004°52'  
2017-Jun-15 23:24N 43°24' E 004°58'0 1.0
2017-Jun-15 22:56N 43°24' E 004°58'0 0.1
2017-Jun-15 22:29N 43°23' E 004°58'0 0.1
2017-Jun-15 21:59N 43°23' E 004°58'0 0.1
2017-Jun-15 21:29N 43°23' E 004°58'0 0.0
2017-Jun-15 20:53N 43°23' E 004°58'0 0.0
2017-Jun-15 20:29N 43°23' E 004°58'0 0.0
2017-Jun-15 19:56N 43°24' E 004°58'0 0.0
2017-Jun-15 19:26N 43°24' E 004°58'0 0.0
2017-Jun-15 18:59N 43°24' E 004°58'0 0.0
2017-Jun-15 18:29N 43°24' E 004°58'0 0.0
2017-Jun-15 17:59N 43°24' E 004°58'0 0.0
2017-Jun-15 17:29N 43°24' E 004°58'0 0.0
2017-Jun-15 16:53N 43°24' E 004°58'0 0.1
2017-Jun-15 16:29N 43°24' E 004°58'0 0.1
2017-Jun-15 15:59N 43°24' E 004°58'0 0.0
2017-Jun-15 15:29N 43°24' E 004°58'0 0.0
2017-Jun-15 14:59N 43°24' E 004°58'0 0.0
2017-Jun-15 13:59N 43°24' E 004°58'0 0.0
2017-Jun-15 13:26N 43°24' E 004°58'0 0.0
2017-Jun-15 12:59N 43°24' E 004°58'0 0.0
2017-Jun-15 12:29N 43°24' E 004°58'0 0.0
2017-Jun-15 11:59N 43°24' E 004°58'0 0.0
2017-Jun-15 11:29N 43°24' E 004°58'0 0.0
2017-Jun-15 10:59N 43°24' E 004°58'0 0.1
2017-Jun-15 10:26N 43°24' E 004°58'0 0.1
2017-Jun-15 09:59N 43°24' E 004°58'0 0.0
2017-Jun-15 09:26N 43°24' E 004°58'0 0.0
2017-Jun-15 08:56N 43°24' E 004°58'0 0.0
2017-Jun-15 08:29N 43°24' E 004°58'0 0.0
2017-Jun-15 07:56N 43°24' E 004°58'0 0.0
2017-Jun-15 07:29N 43°24' E 004°58'0 0.0
2017-Jun-15 06:59N 43°24' E 004°58'0 0.0
2017-Jun-15 06:26N 43°24' E 004°58'0 0.0
2017-Jun-15 05:59N 43°24' E 004°58'0 0.0
2017-Jun-15 05:26N 43°24' E 004°58'0 0.0
2017-Jun-15 04:56N 43°24' E 004°58'0 0.0
2017-Jun-15 04:29N 43°24' E 004°58'0 0.0
2017-Jun-15 03:59N 43°24' E 004°58'0 0.0
2017-Jun-15 03:26N 43°24' E 004°58'0 0.0
2017-Jun-15 02:59N 43°24' E 004°58'0 0.0
2017-Jun-15 02:29N 43°24' E 004°58'0 0.0
2017-Jun-15 01:56N 43°24' E 004°58'0 0.0
2017-Jun-15 01:29N 43°24' E 004°58'0 0.0
2017-Jun-15 00:59N 43°24' E 004°58'0 0.0
2017-Jun-15 00:26N 43°24' E 004°58'0 0.0
2017-Jun-14 23:59N 43°24' E 004°58'0 0.1
2017-Jun-14 23:26N 43°24' E 004°58'0 0.0
2017-Jun-14 22:56N 43°24' E 004°58'0 0.0
2017-Jun-14 22:29N 43°24' E 004°58'0 0.0
2017-Jun-14 21:53N 43°24' E 004°58'0 0.0
2017-Jun-14 21:29N 43°24' E 004°58'0 0.0
2017-Jun-14 20:59N 43°24' E 004°58'0 0.0
2017-Jun-14 20:29N 43°24' E 004°58'0 0.0
2017-Jun-14 19:53N 43°24' E 004°58'0 0.0
2017-Jun-14 19:29N 43°24' E 004°58'0 0.0
2017-Jun-14 18:59N 43°24' E 004°58'0 0.0
2017-Jun-14 18:26N 43°24' E 004°58'0 0.0
2017-Jun-14 17:59N 43°24' E 004°58'0 0.0
2017-Jun-14 17:29N 43°24' E 004°58'0 0.0
2017-Jun-14 16:53N 43°24' E 004°58'0 0.0
2017-Jun-14 16:29N 43°24' E 004°58'0 0.0
2017-Jun-14 15:59N 43°24' E 004°58'0 0.0
2017-Jun-14 15:08N 43°24' E 004°58'0 0.0
2017-Jun-14 14:59N 43°24' E 004°58'0 0.0
2017-Jun-14 13:59N 43°24' E 004°58'0 0.1
2017-Jun-14 13:29N 43°24' E 004°58'0 0.1
2017-Jun-14 12:59N 43°24' E 004°58'0 0.1
2017-Jun-14 12:26N 43°24' E 004°58'0 0.0
2017-Jun-14 11:59N 43°24' E 004°58'0 0.1
2017-Jun-14 11:26N 43°24' E 004°58'0 0.0
2017-Jun-14 10:59N 43°24' E 004°58'0 0.0
2017-Jun-14 10:26N 43°24' E 004°58'0 0.0
2017-Jun-14 09:56N 43°24' E 004°58'0 0.0
2017-Jun-14 09:29N 43°24' E 004°58'0 0.0
2017-Jun-14 08:59N 43°24' E 004°58'0 0.0
2017-Jun-14 08:17N 43°24' E 004°58'0 0.1
2017-Jun-14 07:59N 43°24' E 004°58'0 0.0
2017-Jun-14 07:29N 43°23' E 004°58'0 0.0
2017-Jun-14 06:59N 43°23' E 004°58'0 0.0
2017-Jun-14 06:23N 43°23' E 004°58'0 0.0
2017-Jun-14 05:56N 43°24' E 004°58'0 0.0
2017-Jun-14 05:29N 43°23' E 004°58'0 0.0
2017-Jun-14 04:59N 43°23' E 004°58'0 0.0
2017-Jun-14 04:26N 43°23' E 004°58'0 0.0
2017-Jun-14 03:56N 43°23' E 004°58'0 0.0
2017-Jun-14 03:29N 43°23' E 004°58'0 0.0
2017-Jun-14 02:59N 43°23' E 004°58'0 0.1
2017-Jun-14 02:29N 43°24' E 004°58'1 2.3
2017-Jun-14 02:00N 43°22' E 004°58'7 7.1
2017-Jun-14 01:01N 43°16' E 005°01'0 7.6
2017-Jun-14 01:00N 43°16' E 005°01'4 7.4
2017-Jun-14 00:25N 43°11' E 005°02'3 7.2
2017-Jun-14 00:00N 43°09' E 005°00'5 7.4
2017-Jun-13 23:20N 43°04' E 004°57'2 7.4
2017-Jun-13 23:00N 43°02' E 004°56'4 7.2
2017-Jun-13 22:28N 42°58' E 004°54'5 7.3
2017-Jun-13 21:45N 42°54' E 004°51'2 7.4
2017-Jun-13 21:30N 42°52' E 004°49'4 7.5
2017-Jun-13 21:00N 42°49' E 004°47'5 7.5
2017-Jun-13 20:22N 42°44' E 004°44'3 7.4
2017-Jun-13 20:00N 42°42' E 004°43'7 7.5
2017-Jun-13 19:04N 42°36' E 004°39'0 7.5
2017-Jun-13 19:00N 42°35' E 004°38'15 7.7
2017-Jun-13 17:03N 42°22' E 004°29'0 7.9
2017-Jun-13 17:00N 42°21' E 004°29'4 8.0
2017-Jun-13 16:28N 42°17' E 004°27'4 7.9
2017-Jun-13 16:01N 42°14' E 004°25'8 8.2
2017-Jun-13 15:03N 42°07' E 004°20'0 8.3
2017-Jun-13 15:00N 42°07' E 004°20'12 8.3
2017-Jun-13 13:35N 41°58' E 004°10'1 8.3
2017-Jun-13 13:30N 41°57' E 004°09'4 7.9
2017-Jun-13 13:00N 41°54' E 004°05'4 7.9
2017-Jun-13 12:28N 41°51' E 004°01'8 7.8
2017-Jun-13 11:23N 41°45' E 003°54'3 7.9
2017-Jun-13 11:00N 41°43' E 003°51'15 7.7
2017-Jun-13 09:04N 41°32' E 003°38'0 7.7
2017-Jun-13 09:00N 41°31' E 003°37'21 7.5
2017-Jun-13 06:09N 41°16' E 003°18'1 7.2
2017-Jun-13 06:00N 41°16' E 003°16'4 7.5
2017-Jun-13 05:28N 41°13' E 003°13'4 7.4
2017-Jun-13 04:58N 41°10' E 003°09'3 7.5
2017-Jun-13 04:30N 41°07' E 003°06'19 7.7
2017-Jun-13 02:02N 40°53' E 002°50'1 7.8
2017-Jun-13 01:56N 40°52' E 002°49'3 7.8
2017-Jun-13 01:30N 40°50' E 002°46'4 7.9
2017-Jun-13 00:58N 40°47' E 002°42'4 7.7
2017-Jun-13 00:30N 40°44' E 002°39'4 7.6
2017-Jun-13 00:00N 40°42' E 002°35'4 7.4
2017-Jun-12 23:30N 40°39' E 002°32'4 7.5
2017-Jun-12 23:00N 40°36' E 002°29'4 7.6
2017-Jun-12 22:30N 40°33' E 002°26'4 7.9
2017-Jun-12 22:00N 40°30' E 002°22'4 7.9
2017-Jun-12 21:30N 40°27' E 002°19'4 7.8
2017-Jun-12 21:00N 40°24' E 002°16'4 7.6
2017-Jun-12 20:30N 40°21' E 002°12'4 7.5
2017-Jun-12 20:00N 40°18' E 002°09'4 7.6
2017-Jun-12 19:30N 40°15' E 002°06'4 7.6
2017-Jun-12 19:00N 40°12' E 002°03'4 7.5
2017-Jun-12 18:30N 40°10' E 001°60'4 7.3
2017-Jun-12 18:00N 40°07' E 001°57'4 7.3
2017-Jun-12 17:30N 40°04' E 001°54'4 7.4
2017-Jun-12 17:00N 40°01' E 001°50'4 7.5
2017-Jun-12 16:30N 39°58' E 001°47'4 7.6
2017-Jun-12 16:00N 39°56' E 001°44'4 7.7
2017-Jun-12 15:30N 39°53' E 001°41'4 7.7
2017-Jun-12 14:58N 39°49' E 001°37'4 7.7
2017-Jun-12 14:30N 39°47' E 001°34'15 7.7
2017-Jun-12 12:36N 39°35' E 001°22'3 7.7
2017-Jun-12 12:16N 39°33' E 001°20'2 7.6
2017-Jun-12 11:59N 39°32' E 001°18'4 7.6
2017-Jun-12 11:30N 39°29' E 001°15'8 7.6
2017-Jun-12 10:30N 39°23' E 001°09'4 7.5
2017-Jun-12 10:00N 39°20' E 001°06'4 7.5
2017-Jun-12 09:27N 39°17' E 001°03'11 7.8
2017-Jun-12 08:01N 39°06' E 001°01'0 8.0
2017-Jun-12 08:00N 39°05' E 001°01'5 8.0
2017-Jun-12 07:24N 39°01' E 000°60'4 7.7
2017-Jun-12 06:52N 38°57' E 000°59'3 7.6
2017-Jun-12 06:27N 38°53' E 000°59'24 7.1
2017-Jun-12 03:01N 38°32' E 000°45'1 7.2
2017-Jun-12 02:56N 38°31' E 000°44'3 7.2
2017-Jun-12 02:30N 38°28' E 000°42'4 7.3
2017-Jun-12 02:00N 38°25' E 000°39'4 7.4
2017-Jun-12 01:30N 38°22' E 000°37'4 7.4
2017-Jun-12 01:00N 38°19' E 000°34'4 7.5
2017-Jun-12 00:30N 38°16' E 000°31'4 7.6
2017-Jun-12 00:00N 38°13' E 000°29'4 7.7
2017-Jun-11 23:30N 38°10' E 000°26'4 7.8
2017-Jun-11 22:59N 38°07' E 000°23'4 7.8
2017-Jun-11 22:30N 38°04' E 000°20'6 7.8
2017-Jun-11 21:41N 37°58' E 000°15'3 7.7
2017-Jun-11 21:17N 37°56' E 000°13'3 7.6
2017-Jun-11 20:53N 37°53' E 000°11'11 7.6
2017-Jun-11 19:26N 37°44' E 000°03'3 7.5
2017-Jun-11 19:01N 37°41' E 000°01'4 7.6
2017-Jun-11 18:30N 37°38' W 000°02'4 7.5
2017-Jun-11 18:00N 37°35' W 000°05'4 7.4
2017-Jun-11 17:30N 37°32' W 000°07'4 7.3
2017-Jun-11 17:00N 37°29' W 000°10'4 7.3
2017-Jun-11 16:30N 37°26' W 000°13'3 6.9
2017-Jun-11 16:00N 37°24' W 000°16'3 7.0
2017-Jun-11 15:30N 37°22' W 000°19'4 7.1
2017-Jun-11 15:00N 37°20' W 000°23'  
Track history (hours):
 
Tides and Currents Weather Stations Pressure Air Temp Water Temp Dewpoint Dewpoint Depression Visibility Wind Speed Wind Dir Waves Ship Positions

Kitty C

Last reported at 2017-Jun-21 14:47 UTC. Time now 2017-Jun-26 18:59 UTC.
Position N 43°24' E 003°42'.

Length 106 m; draft 4.4 m.

Type: Cargo ship. MMSI: 235085464.

Date/timePositionNaut miles runAvg speedWind from/ knotsBaromVisibWave heightAir tempDewpointWater temp
2017-Jun-21 14:47N 43°24' E 003°42'0 0.0
2017-Jun-21 14:23N 43°24' E 003°42'0 0.0
2017-Jun-21 13:02N 43°24' E 003°42'0 0.0
2017-Jun-21 12:59N 43°24' E 003°42'0 0.0
2017-Jun-20 14:50N 43°24' E 003°42'0 0.0
2017-Jun-20 14:29N 43°24' E 003°42'0 0.0
2017-Jun-20 12:53N 43°24' E 003°42'0 0.0
2017-Jun-20 12:29N 43°24' E 003°42'0 0.0
2017-Jun-20 11:56N 43°24' E 003°42'0 0.0
2017-Jun-20 11:29N 43°24' E 003°42'0 0.0
2017-Jun-20 10:41N 43°24' E 003°42'0 0.0
2017-Jun-20 09:59N 43°24' E 003°42'1 0.2
2017-Jun-20 03:24N 43°24' E 003°44'6 7.4
2017-Jun-20 02:37N 43°20' E 003°50'16 7.9
2017-Jun-20 00:35N 43°15' E 004°11'1 8.2
2017-Jun-20 00:25N 43°14' E 004°12'6 8.2
2017-Jun-19 23:38N 43°13' E 004°21'6 5.8
2017-Jun-19 22:38N 43°10' E 004°28'4 6.7
2017-Jun-19 22:02N 43°11' E 004°33'0 8.2
2017-Jun-19 22:01N 43°11' E 004°33'6 7.7
2017-Jun-19 21:14N 43°08' E 004°40'4 7.1
2017-Jun-19 20:38N 43°09' E 004°45'13 6.6
2017-Jun-19 18:38N 43°17' E 004°59'4 8.6
2017-Jun-19 18:10N 43°21' E 004°58'1 8.4
2017-Jun-19 18:00N 43°22' E 004°57'5 0.3
2017-Jun-19 02:49N 43°25' E 004°52'  
2017-Jun-15 23:24N 43°24' E 004°58'0 1.0
2017-Jun-15 22:56N 43°24' E 004°58'0 0.1
2017-Jun-15 22:29N 43°23' E 004°58'0 0.1
2017-Jun-15 21:59N 43°23' E 004°58'0 0.1
2017-Jun-15 21:29N 43°23' E 004°58'0 0.0
2017-Jun-15 20:53N 43°23' E 004°58'0 0.0
2017-Jun-15 20:29N 43°23' E 004°58'0 0.0
2017-Jun-15 19:56N 43°24' E 004°58'0 0.0
2017-Jun-15 19:26N 43°24' E 004°58'0 0.0
2017-Jun-15 18:59N 43°24' E 004°58'0 0.0
2017-Jun-15 18:29N 43°24' E 004°58'0 0.0
2017-Jun-15 17:59N 43°24' E 004°58'0 0.0
2017-Jun-15 17:29N 43°24' E 004°58'0 0.0
2017-Jun-15 16:53N 43°24' E 004°58'0 0.1
2017-Jun-15 16:29N 43°24' E 004°58'0 0.1
2017-Jun-15 15:59N 43°24' E 004°58'0 0.0
2017-Jun-15 15:29N 43°24' E 004°58'0 0.0
2017-Jun-15 14:59N 43°24' E 004°58'0 0.0
2017-Jun-15 13:59N 43°24' E 004°58'0 0.0
2017-Jun-15 13:26N 43°24' E 004°58'0 0.0
2017-Jun-15 12:59N 43°24' E 004°58'0 0.0
2017-Jun-15 12:29N 43°24' E 004°58'0 0.0
2017-Jun-15 11:59N 43°24' E 004°58'0 0.0
2017-Jun-15 11:29N 43°24' E 004°58'0 0.0
2017-Jun-15 10:59N 43°24' E 004°58'0 0.1
2017-Jun-15 10:26N 43°24' E 004°58'0 0.1
2017-Jun-15 09:59N 43°24' E 004°58'0 0.0
2017-Jun-15 09:26N 43°24' E 004°58'0 0.0
2017-Jun-15 08:56N 43°24' E 004°58'0 0.0
2017-Jun-15 08:29N 43°24' E 004°58'0 0.0
2017-Jun-15 07:56N 43°24' E 004°58'0 0.0
2017-Jun-15 07:29N 43°24' E 004°58'0 0.0
2017-Jun-15 06:59N 43°24' E 004°58'0 0.0
2017-Jun-15 06:26N 43°24' E 004°58'0 0.0
2017-Jun-15 05:59N 43°24' E 004°58'0 0.0
2017-Jun-15 05:26N 43°24' E 004°58'0 0.0
2017-Jun-15 04:56N 43°24' E 004°58'0 0.0
2017-Jun-15 04:29N 43°24' E 004°58'0 0.0
2017-Jun-15 03:59N 43°24' E 004°58'0 0.0
2017-Jun-15 03:26N 43°24' E 004°58'0 0.0
2017-Jun-15 02:59N 43°24' E 004°58'0 0.0
2017-Jun-15 02:29N 43°24' E 004°58'0 0.0
2017-Jun-15 01:56N 43°24' E 004°58'0 0.0
2017-Jun-15 01:29N 43°24' E 004°58'0 0.0
2017-Jun-15 00:59N 43°24' E 004°58'0 0.0
2017-Jun-15 00:26N 43°24' E 004°58'0 0.0
2017-Jun-14 23:59N 43°24' E 004°58'0 0.1
2017-Jun-14 23:26N 43°24' E 004°58'0 0.0
2017-Jun-14 22:56N 43°24' E 004°58'0 0.0
2017-Jun-14 22:29N 43°24' E 004°58'0 0.0
2017-Jun-14 21:53N 43°24' E 004°58'0 0.0
2017-Jun-14 21:29N 43°24' E 004°58'0 0.0
2017-Jun-14 20:59N 43°24' E 004°58'0 0.0
2017-Jun-14 20:29N 43°24' E 004°58'0 0.0
2017-Jun-14 19:53N 43°24' E 004°58'0 0.0
2017-Jun-14 19:29N 43°24' E 004°58'0 0.0
2017-Jun-14 18:59N 43°24' E 004°58'0 0.0
2017-Jun-14 18:26N 43°24' E 004°58'0 0.0
2017-Jun-14 17:59N 43°24' E 004°58'0 0.0
2017-Jun-14 17:29N 43°24' E 004°58'0 0.0
2017-Jun-14 16:53N 43°24' E 004°58'0 0.0
2017-Jun-14 16:29N 43°24' E 004°58'0 0.0
2017-Jun-14 15:59N 43°24' E 004°58'0 0.0
2017-Jun-14 15:08N 43°24' E 004°58'0 0.0
2017-Jun-14 14:59N 43°24' E 004°58'0 0.0
2017-Jun-14 13:59N 43°24' E 004°58'0 0.1
2017-Jun-14 13:29N 43°24' E 004°58'0 0.1
2017-Jun-14 12:59N 43°24' E 004°58'0 0.1
2017-Jun-14 12:26N 43°24' E 004°58'0 0.0
2017-Jun-14 11:59N 43°24' E 004°58'0 0.1
2017-Jun-14 11:26N 43°24' E 004°58'0 0.0
2017-Jun-14 10:59N 43°24' E 004°58'0 0.0
2017-Jun-14 10:26N 43°24' E 004°58'0 0.0
2017-Jun-14 09:56N 43°24' E 004°58'0 0.0
2017-Jun-14 09:29N 43°24' E 004°58'0 0.0
2017-Jun-14 08:59N 43°24' E 004°58'0 0.0
2017-Jun-14 08:17N 43°24' E 004°58'0 0.1
2017-Jun-14 07:59N 43°24' E 004°58'0 0.0
2017-Jun-14 07:29N 43°23' E 004°58'0 0.0
2017-Jun-14 06:59N 43°23' E 004°58'0 0.0
2017-Jun-14 06:23N 43°23' E 004°58'0 0.0
2017-Jun-14 05:56N 43°24' E 004°58'0 0.0
2017-Jun-14 05:29N 43°23' E 004°58'0 0.0
2017-Jun-14 04:59N 43°23' E 004°58'0 0.0
2017-Jun-14 04:26N 43°23' E 004°58'0 0.0
2017-Jun-14 03:56N 43°23' E 004°58'0 0.0
2017-Jun-14 03:29N 43°23' E 004°58'0 0.0
2017-Jun-14 02:59N 43°23' E 004°58'0 0.1
2017-Jun-14 02:29N 43°24' E 004°58'1 2.3
2017-Jun-14 02:00N 43°22' E 004°58'7 7.1
2017-Jun-14 01:01N 43°16' E 005°01'0 7.6
2017-Jun-14 01:00N 43°16' E 005°01'4 7.4
2017-Jun-14 00:25N 43°11' E 005°02'3 7.2
2017-Jun-14 00:00N 43°09' E 005°00'5 7.4
2017-Jun-13 23:20N 43°04' E 004°57'2 7.4
2017-Jun-13 23:00N 43°02' E 004°56'4 7.2
2017-Jun-13 22:28N 42°58' E 004°54'5 7.3
2017-Jun-13 21:45N 42°54' E 004°51'2 7.4
2017-Jun-13 21:30N 42°52' E 004°49'4 7.5
2017-Jun-13 21:00N 42°49' E 004°47'5 7.5
2017-Jun-13 20:22N 42°44' E 004°44'3 7.4
2017-Jun-13 20:00N 42°42' E 004°43'7 7.5
2017-Jun-13 19:04N 42°36' E 004°39'0 7.5
2017-Jun-13 19:00N 42°35' E 004°38'15 7.7
2017-Jun-13 17:03N 42°22' E 004°29'0 7.9
2017-Jun-13 17:00N 42°21' E 004°29'4 8.0
2017-Jun-13 16:28N 42°17' E 004°27'4 7.9
2017-Jun-13 16:01N 42°14' E 004°25'8 8.2
2017-Jun-13 15:03N 42°07' E 004°20'0 8.3
2017-Jun-13 15:00N 42°07' E 004°20'12 8.3
2017-Jun-13 13:35N 41°58' E 004°10'1 8.3
2017-Jun-13 13:30N 41°57' E 004°09'4 7.9
2017-Jun-13 13:00N 41°54' E 004°05'4 7.9
2017-Jun-13 12:28N 41°51' E 004°01'8 7.8
2017-Jun-13 11:23N 41°45' E 003°54'3 7.9
2017-Jun-13 11:00N 41°43' E 003°51'15 7.7
2017-Jun-13 09:04N 41°32' E 003°38'0 7.7
2017-Jun-13 09:00N 41°31' E 003°37'21 7.5
2017-Jun-13 06:09N 41°16' E 003°18'1 7.2
2017-Jun-13 06:00N 41°16' E 003°16'4 7.5
2017-Jun-13 05:28N 41°13' E 003°13'4 7.4
2017-Jun-13 04:58N 41°10' E 003°09'3 7.5
2017-Jun-13 04:30N 41°07' E 003°06'19 7.7
2017-Jun-13 02:02N 40°53' E 002°50'1 7.8
2017-Jun-13 01:56N 40°52' E 002°49'3 7.8
2017-Jun-13 01:30N 40°50' E 002°46'4 7.9
2017-Jun-13 00:58N 40°47' E 002°42'4 7.7
2017-Jun-13 00:30N 40°44' E 002°39'4 7.6
2017-Jun-13 00:00N 40°42' E 002°35'4 7.4
2017-Jun-12 23:30N 40°39' E 002°32'4 7.5
2017-Jun-12 23:00N 40°36' E 002°29'4 7.6
2017-Jun-12 22:30N 40°33' E 002°26'4 7.9
2017-Jun-12 22:00N 40°30' E 002°22'4 7.9
2017-Jun-12 21:30N 40°27' E 002°19'4 7.8
2017-Jun-12 21:00N 40°24' E 002°16'4 7.6
2017-Jun-12 20:30N 40°21' E 002°12'4 7.5
2017-Jun-12 20:00N 40°18' E 002°09'4 7.6
2017-Jun-12 19:30N 40°15' E 002°06'4 7.6
2017-Jun-12 19:00N 40°12' E 002°03'4 7.5
2017-Jun-12 18:30N 40°10' E 001°60'4 7.3
2017-Jun-12 18:00N 40°07' E 001°57'4 7.3
2017-Jun-12 17:30N 40°04' E 001°54'4 7.4
2017-Jun-12 17:00N 40°01' E 001°50'4 7.5
2017-Jun-12 16:30N 39°58' E 001°47'4 7.6
2017-Jun-12 16:00N 39°56' E 001°44'4 7.7
2017-Jun-12 15:30N 39°53' E 001°41'4 7.7
2017-Jun-12 14:58N 39°49' E 001°37'4 7.7
2017-Jun-12 14:30N 39°47' E 001°34'15 7.7
2017-Jun-12 12:36N 39°35' E 001°22'3 7.7
2017-Jun-12 12:16N 39°33' E 001°20'2 7.6
2017-Jun-12 11:59N 39°32' E 001°18'4 7.6
2017-Jun-12 11:30N 39°29' E 001°15'8 7.6
2017-Jun-12 10:30N 39°23' E 001°09'4 7.5
2017-Jun-12 10:00N 39°20' E 001°06'4 7.5
2017-Jun-12 09:27N 39°17' E 001°03'11 7.8
2017-Jun-12 08:01N 39°06' E 001°01'0 8.0
2017-Jun-12 08:00N 39°05' E 001°01'5 8.0
2017-Jun-12 07:24N 39°01' E 000°60'4 7.7
2017-Jun-12 06:52N 38°57' E 000°59'3 7.6
2017-Jun-12 06:27N 38°53' E 000°59'24 7.1
2017-Jun-12 03:01N 38°32' E 000°45'1 7.2
2017-Jun-12 02:56N 38°31' E 000°44'3 7.2
2017-Jun-12 02:30N 38°28' E 000°42'4 7.3
2017-Jun-12 02:00N 38°25' E 000°39'4 7.4
2017-Jun-12 01:30N 38°22' E 000°37'4 7.4
2017-Jun-12 01:00N 38°19' E 000°34'4 7.5
2017-Jun-12 00:30N 38°16' E 000°31'4 7.6
2017-Jun-12 00:00N 38°13' E 000°29'4 7.7
2017-Jun-11 23:30N 38°10' E 000°26'4 7.8
2017-Jun-11 22:59N 38°07' E 000°23'4 7.8
2017-Jun-11 22:30N 38°04' E 000°20'6 7.8
2017-Jun-11 21:41N 37°58' E 000°15'3 7.7
2017-Jun-11 21:17N 37°56' E 000°13'3 7.6
2017-Jun-11 20:53N 37°53' E 000°11'11 7.6
2017-Jun-11 19:26N 37°44' E 000°03'3 7.5
2017-Jun-11 19:01N 37°41' E 000°01'4 7.6
2017-Jun-11 18:30N 37°38' W 000°02'4 7.5
2017-Jun-11 18:00N 37°35' W 000°05'4 7.4
2017-Jun-11 17:30N 37°32' W 000°07'4 7.3
2017-Jun-11 17:00N 37°29' W 000°10'4 7.3
2017-Jun-11 16:30N 37°26' W 000°13'3 6.9
2017-Jun-11 16:00N 37°24' W 000°16'3 7.0
2017-Jun-11 15:30N 37°22' W 000°19'4 7.1
2017-Jun-11 15:00N 37°20' W 000°23'  

Dump ship's entire track history